sensor_id;sensor_type;location;lat;lon;timestamp;temperature;humidity
16674;DHT22;8450;52.654;10.326;2023-02-11T08:27:46;6.00;99.90
16674;DHT22;8450;52.654;10.326;2023-02-11T08:30:12;6.00;99.90
16674;DHT22;8450;52.654;10.326;2023-02-11T08:32:38;6.10;99.90
16674;DHT22;8450;52.654;10.326;2023-02-11T08:35:04;6.10;99.90
16674;DHT22;8450;52.654;10.326;2023-02-11T08:37:32;6.10;99.90
16674;DHT22;8450;52.654;10.326;2023-02-11T08:39:57;6.10;99.90
16674;DHT22;8450;52.654;10.326;2023-02-11T08:42:23;6.10;99.90
16674;DHT22;8450;52.654;10.326;2023-02-11T08:44:48;6.10;99.90
16674;DHT22;8450;52.654;10.326;2023-02-11T08:47:14;6.10;99.90
16674;DHT22;8450;52.654;10.326;2023-02-11T08:49:39;6.20;99.90
16674;DHT22;8450;52.654;10.326;2023-02-11T08:52:07;6.20;99.90
16674;DHT22;8450;52.654;10.326;2023-02-11T08:54:32;6.20;99.90
16674;DHT22;8450;52.654;10.326;2023-02-11T08:56:58;6.20;99.90
16674;DHT22;8450;52.654;10.326;2023-02-11T08:59:26;6.20;99.90
16674;DHT22;8450;52.654;10.326;2023-02-11T09:01:51;6.20;99.90
16674;DHT22;8450;52.654;10.326;2023-02-11T09:04:17;6.20;99.90
16674;DHT22;8450;52.654;10.326;2023-02-11T09:06:42;6.20;99.90
16674;DHT22;8450;52.654;10.326;2023-02-11T09:09:13;6.30;99.90
16674;DHT22;8450;52.654;10.326;2023-02-11T09:11:39;6.30;99.90
16674;DHT22;8450;52.654;10.326;2023-02-11T09:14:06;6.30;99.90
16674;DHT22;8450;52.654;10.326;2023-02-11T09:16:35;6.30;99.90
16674;DHT22;8450;52.654;10.326;2023-02-11T09:19:03;6.30;99.90
16674;DHT22;8450;52.654;10.326;2023-02-11T09:21:29;6.30;99.90
16674;DHT22;8450;52.654;10.326;2023-02-11T09:23:55;6.30;99.90
16674;DHT22;8450;52.654;10.326;2023-02-11T09:26:25;6.30;99.90
16674;DHT22;8450;52.654;10.326;2023-02-11T09:28:51;6.30;99.90
16674;DHT22;8450;52.654;10.326;2023-02-11T09:31:20;6.40;99.90
16674;DHT22;8450;52.654;10.326;2023-02-11T09:33:47;6.40;99.90
16674;DHT22;8450;52.654;10.326;2023-02-11T09:36:24;6.40;99.90
16674;DHT22;8450;52.654;10.326;2023-02-11T09:38:51;6.40;99.90
16674;DHT22;8450;52.654;10.326;2023-02-11T09:43:52;6.40;99.90
16674;DHT22;8450;52.654;10.326;2023-02-11T09:46:19;6.40;99.90
16674;DHT22;8450;52.654;10.326;2023-02-11T09:48:48;6.40;99.90
16674;DHT22;8450;52.654;10.326;2023-02-11T09:51:19;6.50;99.90
16674;DHT22;8450;52.654;10.326;2023-02-11T09:53:50;6.50;99.90
16674;DHT22;8450;52.654;10.326;2023-02-11T09:56:16;6.50;99.90
16674;DHT22;8450;52.654;10.326;2023-02-11T09:58:43;6.50;99.90
16674;DHT22;8450;52.654;10.326;2023-02-11T10:01:15;6.50;99.90
16674;DHT22;8450;52.654;10.326;2023-02-11T10:04:17;6.50;99.90
16674;DHT22;8450;52.654;10.326;2023-02-11T10:06:54;6.50;99.90
16674;DHT22;8450;52.654;10.326;2023-02-11T10:09:27;6.50;99.90
16674;DHT22;8450;52.654;10.326;2023-02-11T10:12:25;6.50;99.90
16674;DHT22;8450;52.654;10.326;2023-02-11T10:15:12;6.50;99.90
16674;DHT22;8450;52.654;10.326;2023-02-11T10:18:05;6.50;99.90
16674;DHT22;8450;52.654;10.326;2023-02-11T10:21:01;6.50;99.90
16674;DHT22;8450;52.654;10.326;2023-02-11T10:23:34;6.50;99.90
16674;DHT22;8450;52.654;10.326;2023-02-11T10:26:00;6.60;99.90
16674;DHT22;8450;52.654;10.326;2023-02-11T10:28:29;6.50;99.90
16674;DHT22;8450;52.654;10.326;2023-02-11T10:31:06;6.60;99.90
16674;DHT22;8450;52.654;10.326;2023-02-11T10:33:51;6.60;99.90
16674;DHT22;8450;52.654;10.326;2023-02-11T10:36:18;6.60;99.90
16674;DHT22;8450;52.654;10.326;2023-02-11T10:38:45;6.60;99.90
16674;DHT22;8450;52.654;10.326;2023-02-11T10:41:16;6.60;99.90
16674;DHT22;8450;52.654;10.326;2023-02-11T10:43:43;6.60;99.90
16674;DHT22;8450;52.654;10.326;2023-02-11T10:46:18;6.60;99.90
16674;DHT22;8450;52.654;10.326;2023-02-11T10:48:49;6.60;99.90
16674;DHT22;8450;52.654;10.326;2023-02-11T10:51:22;6.70;99.90
16674;DHT22;8450;52.654;10.326;2023-02-11T10:56:32;6.70;99.90
16674;DHT22;8450;52.654;10.326;2023-02-11T10:59:50;6.70;99.90
16674;DHT22;8450;52.654;10.326;2023-02-11T11:01:52;6.70;99.90
16674;DHT22;8450;52.654;10.326;2023-02-11T11:07:12;6.80;99.90
16674;DHT22;8450;52.654;10.326;2023-02-11T11:12:46;6.80;99.90
16674;DHT22;8450;52.654;10.326;2023-02-11T11:15:16;6.80;99.90
16674;DHT22;8450;52.654;10.326;2023-02-11T11:17:45;6.80;99.90
16674;DHT22;8450;52.654;10.326;2023-02-11T11:20:15;6.90;99.90
16674;DHT22;8450;52.654;10.326;2023-02-11T11:22:41;6.80;99.90
16674;DHT22;8450;52.654;10.326;2023-02-11T11:25:27;6.90;99.90
16674;DHT22;8450;52.654;10.326;2023-02-11T11:27:57;6.90;99.90
16674;DHT22;8450;52.654;10.326;2023-02-11T11:30:27;6.90;99.90
16674;DHT22;8450;52.654;10.326;2023-02-11T11:32:57;6.90;99.90
16674;DHT22;8450;52.654;10.326;2023-02-11T11:35:26;7.00;99.90
16674;DHT22;8450;52.654;10.326;2023-02-11T11:37:54;7.00;99.90
16674;DHT22;8450;52.654;10.326;2023-02-11T11:40:28;7.00;99.90
16674;DHT22;8450;52.654;10.326;2023-02-11T11:45:37;7.00;99.90
16674;DHT22;8450;52.654;10.326;2023-02-11T11:48:12;7.00;99.90
16674;DHT22;8450;52.654;10.326;2023-02-11T11:50:55;7.00;99.90
16674;DHT22;8450;52.654;10.326;2023-02-11T11:53:36;7.00;99.90
16674;DHT22;8450;52.654;10.326;2023-02-11T11:56:18;7.00;99.90
16674;DHT22;8450;52.654;10.326;2023-02-11T11:58:44;7.10;99.90
16674;DHT22;8450;52.654;10.326;2023-02-11T12:12:59;7.10;99.90
16674;DHT22;8450;52.654;10.326;2023-02-11T12:15:34;7.10;99.90
16674;DHT22;8450;52.654;10.326;2023-02-11T12:21:22;7.10;99.90
16674;DHT22;8450;52.654;10.326;2023-02-11T12:35:24;7.10;99.90
16674;DHT22;8450;52.654;10.326;2023-02-11T12:41:17;7.10;99.90
16674;DHT22;8450;52.654;10.326;2023-02-11T12:44:06;7.20;99.90
16674;DHT22;8450;52.654;10.326;2023-02-11T12:46:48;7.10;99.90
16674;DHT22;8450;52.654;10.326;2023-02-11T12:54:42;7.10;99.90
16674;DHT22;8450;52.654;10.326;2023-02-11T12:57:26;7.20;99.90
16674;DHT22;8450;52.654;10.326;2023-02-11T13:02:39;7.20;99.90
16674;DHT22;8450;52.654;10.326;2023-02-11T13:07:44;7.20;99.90
16674;DHT22;8450;52.654;10.326;2023-02-11T13:10:34;7.20;99.90
16674;DHT22;8450;52.654;10.326;2023-02-11T13:13:04;7.20;99.90
16674;DHT22;8450;52.654;10.326;2023-02-11T13:15:51;7.20;99.90
16674;DHT22;8450;52.654;10.326;2023-02-11T13:29:24;7.20;99.90
16674;DHT22;8450;52.654;10.326;2023-02-11T13:31:57;7.20;99.90
16674;DHT22;8450;52.654;10.326;2023-02-11T13:34:53;7.20;99.90
16674;DHT22;8450;52.654;10.326;2023-02-11T13:37:24;7.20;99.90
16674;DHT22;8450;52.654;10.326;2023-02-11T13:40:03;7.20;99.90
16674;DHT22;8450;52.654;10.326;2023-02-11T13:42:31;7.20;99.90
16674;DHT22;8450;52.654;10.326;2023-02-11T14:42:16;7.30;99.90
16674;DHT22;8450;52.654;10.326;2023-02-11T14:44:44;7.30;99.90
16674;DHT22;8450;52.654;10.326;2023-02-11T14:47:18;7.30;99.90
16674;DHT22;8450;52.654;10.326;2023-02-11T14:49:45;7.30;99.90
16674;DHT22;8450;52.654;10.326;2023-02-11T14:54:41;7.30;99.90
16674;DHT22;8450;52.654;10.326;2023-02-11T15:01:54;7.30;99.90
